createdAt,value
2018-02-22T00:00:52.113Z,16.60
2018-02-22T00:03:19.699Z,17.43
2018-02-22T00:05:47.235Z,17.20
2018-02-22T00:08:14.798Z,17.07
2018-02-22T00:10:42.332Z,17.03
2018-02-22T00:13:09.869Z,17.10
2018-02-22T00:15:37.419Z,15.67
2018-02-22T00:18:04.987Z,17.73
2018-02-22T00:20:32.539Z,16.33
2018-02-22T00:23:00.088Z,16.63
2018-02-22T00:25:28.412Z,15.70
2018-02-22T00:27:55.965Z,16.27
2018-02-22T00:30:23.521Z,16.13
2018-02-22T00:32:51.094Z,15.93
2018-02-22T00:35:18.646Z,15.87
2018-02-22T00:37:46.209Z,17.33
2018-02-22T00:40:13.732Z,16.87
2018-02-22T00:42:41.310Z,16.33
2018-02-22T00:45:08.871Z,16.07
2018-02-22T00:47:36.393Z,16.23
2018-02-22T00:50:03.923Z,17.00
2018-02-22T00:52:31.463Z,15.60
2018-02-22T00:54:59.074Z,17.93
2018-02-22T00:57:26.614Z,14.70
2018-02-22T00:59:54.209Z,16.13
2018-02-22T01:02:21.776Z,17.03
2018-02-22T01:04:49.317Z,17.37
2018-02-22T01:07:16.891Z,16.43
2018-02-22T01:09:44.496Z,17.67
2018-02-22T01:12:12.039Z,17.07
2018-02-22T01:14:39.574Z,17.27
2018-02-22T01:17:07.151Z,17.07
2018-02-22T01:19:34.708Z,17.20
2018-02-22T02:02:10.632Z,16.03
2018-02-22T02:04:38.186Z,16.00
2018-02-22T02:07:05.723Z,16.97
2018-02-22T02:09:33.243Z,17.80
2018-02-22T02:12:00.853Z,16.20
2018-02-22T02:14:28.370Z,17.40
2018-02-22T02:16:55.930Z,16.60
2018-02-22T03:17:02.941Z,17.93
2018-02-22T03:19:30.494Z,18.37
2018-02-22T03:21:58.074Z,16.53
2018-02-22T03:24:25.570Z,17.63
2018-02-22T03:58:30.030Z,19.83
2018-02-22T04:00:57.540Z,18.20
2018-02-22T04:03:25.081Z,16.93
2018-02-22T04:05:53.914Z,17.83
2018-02-22T04:08:21.433Z,18.00
2018-02-22T04:10:48.925Z,16.60
2018-02-22T04:13:16.516Z,18.23
2018-02-22T04:15:44.093Z,17.83
2018-02-22T04:18:11.586Z,18.37
2018-02-22T04:20:39.103Z,17.87
2018-02-22T04:23:06.601Z,18.90
2018-02-22T04:25:34.152Z,18.77
2018-02-22T04:28:01.714Z,19.90
2018-02-22T04:30:29.232Z,18.70
2018-02-22T04:32:56.815Z,17.70
2018-02-22T04:35:24.431Z,17.93
2018-02-22T04:37:52.011Z,20.50
2018-02-22T04:40:19.584Z,18.23
2018-02-22T04:42:47.104Z,20.87
2018-02-22T04:45:14.832Z,20.13
2018-02-22T04:47:42.389Z,19.30
2018-02-22T04:50:09.900Z,19.50
2018-02-22T04:52:37.458Z,18.53
2018-02-22T04:55:04.969Z,19.13
2018-02-22T04:57:32.573Z,18.97
2018-02-22T05:00:00.116Z,18.73
2018-02-22T05:02:28.470Z,19.10
2018-02-22T05:04:56.008Z,18.87
2018-02-22T05:07:23.547Z,21.10
2018-02-22T05:09:51.085Z,21.50
2018-02-22T05:12:18.637Z,21.53
2018-02-22T05:14:46.185Z,21.37
2018-02-22T05:17:13.690Z,21.37
2018-02-22T05:19:41.200Z,21.93
2018-02-22T05:22:08.764Z,21.73
2018-02-22T05:24:36.296Z,23.43
2018-02-22T05:27:03.904Z,22.57
2018-02-22T05:29:31.434Z,21.03
2018-02-22T05:31:58.933Z,24.40
2018-02-22T05:34:26.509Z,23.83
2018-02-22T05:36:54.165Z,23.80
2018-02-22T05:39:21.863Z,23.90
2018-02-22T05:41:49.613Z,21.70
2018-02-22T05:44:17.165Z,21.60
2018-02-22T05:46:44.666Z,21.73
2018-02-22T05:49:12.158Z,22.37
2018-02-22T05:51:39.684Z,23.60
2018-02-22T05:54:08.110Z,24.53
2018-02-22T05:56:35.616Z,23.07
2018-02-22T05:59:05.270Z,25.53
2018-02-22T06:01:32.789Z,25.20
2018-02-22T06:04:00.333Z,24.17
2018-02-22T06:06:27.837Z,24.60
2018-02-22T06:08:55.386Z,24.23
2018-02-22T06:11:22.929Z,24.00
2018-02-22T06:13:50.552Z,24.57
2018-02-22T06:16:18.046Z,28.47
2018-02-22T06:18:45.601Z,28.40
2018-02-22T06:21:13.111Z,30.40
2018-02-22T06:23:40.673Z,31.17
2018-02-22T06:26:08.220Z,29.97
2018-02-22T06:28:35.797Z,28.07
2018-02-22T06:31:03.320Z,29.30
2018-02-22T06:33:36.489Z,31.00
2018-02-22T06:36:04.161Z,29.00
2018-02-22T06:38:31.713Z,30.07
2018-02-22T06:40:59.273Z,30.13
2018-02-22T06:43:27.178Z,30.03
2018-02-22T06:45:54.818Z,31.87
2018-02-22T06:48:22.461Z,28.13
2018-02-22T06:50:50.030Z,29.63
2018-02-22T06:53:17.569Z,28.43
2018-02-22T06:55:45.098Z,28.93
2018-02-22T06:58:12.659Z,27.47
2018-02-22T07:00:40.228Z,30.07
2018-02-22T07:03:07.824Z,28.27
2018-02-22T07:05:35.379Z,30.43
2018-02-22T07:08:03.069Z,32.33
2018-02-22T07:10:30.616Z,30.57
2018-02-22T07:12:59.501Z,32.40
2018-02-22T07:15:27.054Z,31.80
2018-02-22T07:17:54.605Z,31.50
2018-02-22T07:20:24.738Z,31.03
2018-02-22T07:22:52.305Z,31.07
2018-02-22T07:25:19.826Z,32.97
2018-02-22T07:27:47.427Z,32.73
2018-02-22T07:30:15.031Z,32.47
2018-02-22T07:32:42.563Z,30.50
2018-02-22T07:35:10.118Z,30.23
2018-02-22T07:37:37.693Z,31.57
2018-02-22T07:40:05.285Z,30.37
2018-02-22T07:42:32.778Z,30.60
2018-02-22T07:45:00.294Z,29.97
2018-02-22T07:47:27.820Z,29.57
2018-02-22T07:49:55.406Z,31.57
2018-02-22T07:52:22.919Z,31.67
2018-02-22T07:54:50.441Z,31.87
2018-02-22T07:57:18.005Z,34.17
2018-02-22T07:59:45.506Z,31.37
2018-02-22T08:02:13.007Z,32.37
2018-02-22T08:04:40.536Z,33.60
2018-02-22T08:07:08.059Z,32.57
2018-02-22T08:09:35.557Z,31.90
2018-02-22T08:12:03.075Z,31.50
2018-02-22T08:14:30.651Z,33.33
2018-02-22T08:16:58.187Z,32.07
2018-02-22T08:19:25.717Z,30.90
2018-02-22T08:21:53.214Z,31.60
2018-02-22T08:24:20.733Z,22.23
2018-02-22T08:26:48.254Z,29.77
2018-02-22T08:29:15.803Z,26.53
2018-02-22T08:31:43.328Z,31.73
2018-02-22T08:34:10.866Z,30.13
2018-02-22T08:36:38.376Z,29.20
2018-02-22T08:39:05.903Z,28.27
2018-02-22T08:41:33.420Z,30.00
2018-02-22T08:44:00.940Z,29.80
2018-02-22T08:46:28.497Z,31.43
2018-02-22T08:48:56.009Z,30.10
2018-02-22T08:51:23.612Z,27.87
2018-02-22T08:53:51.127Z,28.80
2018-02-22T08:56:18.648Z,27.23
2018-02-22T08:58:46.145Z,29.17
2018-02-22T09:01:13.684Z,30.97
2018-02-22T09:03:41.202Z,29.73
2018-02-22T09:06:08.713Z,29.77
2018-02-22T09:08:36.238Z,27.77
2018-02-22T09:11:03.759Z,27.23
2018-02-22T09:13:31.282Z,25.47
2018-02-22T09:15:58.776Z,24.30
2018-02-22T09:18:26.290Z,23.87
2018-02-22T09:20:53.813Z,23.23
2018-02-22T09:23:21.323Z,24.83
2018-02-22T09:25:48.822Z,21.63
2018-02-22T09:28:16.342Z,20.10
2018-02-22T09:30:43.868Z,23.23
2018-02-22T09:33:11.364Z,22.10
2018-02-22T09:35:38.873Z,21.10
2018-02-22T09:38:06.378Z,21.23
2018-02-22T09:40:33.954Z,20.27
2018-02-22T09:43:01.466Z,19.67
2018-02-22T09:45:28.990Z,20.60
2018-02-22T09:47:56.515Z,18.07
2018-02-22T09:50:24.058Z,19.97
2018-02-22T09:52:51.566Z,21.13
2018-02-22T09:55:19.081Z,22.40
2018-02-22T09:57:46.633Z,21.00
2018-02-22T10:00:14.197Z,20.90
2018-02-22T10:02:41.742Z,21.07
2018-02-22T10:05:09.268Z,21.27
2018-02-22T10:07:36.781Z,20.47
2018-02-22T10:10:04.343Z,21.37
2018-02-22T10:12:32.037Z,22.07
2018-02-22T10:14:59.581Z,19.57
2018-02-22T10:17:27.070Z,20.93
2018-02-22T10:19:54.587Z,21.10
2018-02-22T10:22:22.104Z,19.77
2018-02-22T10:24:49.602Z,20.67
2018-02-22T10:27:17.152Z,20.90
2018-02-22T10:29:44.659Z,22.70
2018-02-22T10:32:12.170Z,21.23
2018-02-22T10:34:39.693Z,19.30
2018-02-22T10:37:07.207Z,16.53
2018-02-22T10:39:34.736Z,22.10
2018-02-22T10:42:02.262Z,21.83
2018-02-22T10:44:29.781Z,19.33
2018-02-22T10:46:57.320Z,21.50
2018-02-22T10:49:24.833Z,20.77
2018-02-22T10:51:52.340Z,20.50
2018-02-22T10:54:19.819Z,20.53
2018-02-22T10:56:47.349Z,20.00
2018-02-22T10:59:14.840Z,18.13
2018-02-22T11:01:47.920Z,21.47
2018-02-22T11:04:15.417Z,20.57
2018-02-22T11:06:42.936Z,19.50
2018-02-22T11:09:10.448Z,20.03
2018-02-22T11:11:37.949Z,20.23
2018-02-22T11:14:05.504Z,19.00
2018-02-22T11:16:33.087Z,19.17
2018-02-22T11:19:00.622Z,18.57
2018-02-22T11:21:28.134Z,20.23
2018-02-22T11:23:55.657Z,20.57
2018-02-22T11:26:23.199Z,19.00
2018-02-22T11:28:50.713Z,18.30
2018-02-22T11:31:18.217Z,18.23
2018-02-22T11:33:45.782Z,16.23
2018-02-22T11:36:13.326Z,15.37
2018-02-22T11:38:40.855Z,15.70
2018-02-22T11:41:08.410Z,16.43
2018-02-22T11:43:35.975Z,16.23
2018-02-22T11:46:03.536Z,14.43
2018-02-22T11:48:31.065Z,14.93
2018-02-22T11:50:58.647Z,15.27
2018-02-22T11:53:26.187Z,15.87
2018-02-22T11:55:53.749Z,14.67
2018-02-22T11:58:21.277Z,15.30
2018-02-22T12:00:48.843Z,15.37
2018-02-22T12:03:16.368Z,14.80
2018-02-22T12:05:43.892Z,14.17
2018-02-22T12:08:11.415Z,15.27
2018-02-22T12:10:38.925Z,15.50
2018-02-22T12:13:06.426Z,13.63
2018-02-22T12:15:33.917Z,14.20
2018-02-22T12:18:01.446Z,14.23
2018-02-22T12:20:28.963Z,14.07
2018-02-22T12:22:56.485Z,13.03
2018-02-22T12:25:24.049Z,11.97
2018-02-22T12:27:51.581Z,14.03
2018-02-22T12:30:19.102Z,12.50
2018-02-22T12:32:46.668Z,11.97
2018-02-22T12:35:14.168Z,11.07
2018-02-22T12:37:41.722Z,11.00
2018-02-22T12:40:09.236Z,10.10
2018-02-22T12:42:36.758Z,10.27
2018-02-22T12:45:04.292Z,10.87
2018-02-22T12:47:31.848Z,10.00
2018-02-22T12:49:59.408Z,10.97
2018-02-22T12:52:26.912Z,11.27
2018-02-22T12:54:54.482Z,10.57
2018-02-22T12:57:22.009Z,11.13
2018-02-22T12:59:49.573Z,9.47
2018-02-22T13:02:17.080Z,9.73
2018-02-22T13:04:44.604Z,9.30
2018-02-22T13:07:12.160Z,9.00
2018-02-22T13:09:39.709Z,8.30
2018-02-22T13:12:07.269Z,9.93
2018-02-22T13:14:34.750Z,9.27
2018-02-22T13:17:02.279Z,9.70
2018-02-22T13:19:29.793Z,9.40
2018-02-22T13:21:57.311Z,9.80
2018-02-22T13:24:24.852Z,9.23
2018-02-22T13:26:52.389Z,9.40
2018-02-22T13:29:21.720Z,8.57
2018-02-22T13:31:49.265Z,9.43
2018-02-22T13:34:24.113Z,9.53
2018-02-22T13:36:51.602Z,9.37
2018-02-22T13:39:19.465Z,9.77
2018-02-22T13:41:47.059Z,8.33
2018-02-22T13:44:26.381Z,9.27
2018-02-22T13:46:53.919Z,9.23
2018-02-22T13:49:33.031Z,9.40
2018-02-22T13:52:00.575Z,8.40
2018-02-22T13:54:28.062Z,9.73
2018-02-22T13:57:07.313Z,9.07
2018-02-22T13:59:34.856Z,8.20
2018-02-22T14:02:14.157Z,9.77
2018-02-22T14:04:41.658Z,8.33
2018-02-22T14:07:09.205Z,8.40
2018-02-22T14:09:36.737Z,8.47
2018-02-22T14:12:04.266Z,8.33
2018-02-22T14:14:31.785Z,7.80
2018-02-22T14:16:59.319Z,8.23
2018-02-22T14:19:26.814Z,13.30
2018-02-22T14:21:54.422Z,10.10
2018-02-22T14:24:21.935Z,8.47
2018-02-22T14:26:49.518Z,8.63
2018-02-22T14:29:17.032Z,8.60
2018-02-22T14:31:44.537Z,8.17
2018-02-22T14:34:12.077Z,9.83
2018-02-22T14:36:39.736Z,8.93
2018-02-22T14:39:07.253Z,11.07
2018-02-22T14:41:34.810Z,8.13
2018-02-22T14:44:02.306Z,8.33
2018-02-22T14:46:29.831Z,7.97
2018-02-22T14:48:57.332Z,8.93
2018-02-22T14:51:24.843Z,7.57
2018-02-22T14:53:52.325Z,5.77
2018-02-22T14:56:19.853Z,7.50
2018-02-22T14:58:47.424Z,8.03
2018-02-22T15:01:14.963Z,8.07
2018-02-22T15:03:42.465Z,7.77
2018-02-22T15:06:09.951Z,7.43
2018-02-22T15:08:37.505Z,7.70
2018-02-22T15:11:05.032Z,8.27
2018-02-22T15:13:32.536Z,7.80
2018-02-22T15:16:00.088Z,7.57
2018-02-22T15:18:27.633Z,7.97
2018-02-22T15:20:55.148Z,8.60
2018-02-22T15:23:22.632Z,8.00
2018-02-22T15:25:57.149Z,7.37
2018-02-22T15:28:24.633Z,7.93
2018-02-22T15:30:52.180Z,7.70
2018-02-22T15:33:19.684Z,8.40
2018-02-22T15:35:47.194Z,7.90
2018-02-22T15:38:14.682Z,7.53
2018-02-22T15:40:42.229Z,7.30
2018-02-22T15:43:09.772Z,7.87
2018-02-22T15:45:37.326Z,6.40
2018-02-22T15:48:04.836Z,7.40
2018-02-22T15:50:32.361Z,7.93
2018-02-22T15:52:59.904Z,7.97
2018-02-22T15:55:27.461Z,7.73
2018-02-22T15:57:54.963Z,6.67
2018-02-22T16:00:22.534Z,7.20
2018-02-22T16:02:50.072Z,6.77
2018-02-22T16:05:17.594Z,7.30
2018-02-22T16:07:45.090Z,6.50
2018-02-22T16:10:12.581Z,8.13
2018-02-22T16:12:40.164Z,8.00
2018-02-22T16:15:07.653Z,7.73
2018-02-22T16:17:35.229Z,7.57
2018-02-22T16:20:03.609Z,7.83
2018-02-22T16:22:31.163Z,7.43
2018-02-22T16:24:58.754Z,7.30
2018-02-22T16:27:26.277Z,7.60
2018-02-22T16:29:53.842Z,7.47
2018-02-22T16:32:21.377Z,8.00
2018-02-22T16:34:49.078Z,7.57
2018-02-22T16:37:16.711Z,8.47
2018-02-22T16:39:45.394Z,7.10
2018-02-22T16:42:13.067Z,7.30
2018-02-22T16:44:40.610Z,7.90
2018-02-22T16:47:08.344Z,7.23
2018-02-22T16:49:35.906Z,7.90
2018-02-22T16:52:03.602Z,8.43
2018-02-22T16:54:31.296Z,9.03
2018-02-22T16:57:01.076Z,9.33
2018-02-22T16:59:28.594Z,7.97
2018-02-22T17:01:56.128Z,7.87
2018-02-22T17:04:23.666Z,8.40
2018-02-22T17:06:51.256Z,8.97
2018-02-22T17:09:18.813Z,9.90
2018-02-22T17:11:46.506Z,9.40
2018-02-22T17:14:14.076Z,9.03
2018-02-22T17:16:41.566Z,9.27
2018-02-22T17:19:09.085Z,9.63
2018-02-22T17:21:36.673Z,10.47
2018-02-22T17:24:04.258Z,11.07
2018-02-22T17:26:37.394Z,11.00
2018-02-22T17:29:10.362Z,11.97
2018-02-22T17:31:43.601Z,11.27
2018-02-22T17:34:11.221Z,14.30
2018-02-22T17:36:57.478Z,12.83
2018-02-22T17:39:28.033Z,12.27
2018-02-22T17:41:55.569Z,14.63
2018-02-22T17:44:23.079Z,14.13
2018-02-22T17:46:51.728Z,14.40
2018-02-22T17:49:19.337Z,16.03
2018-02-22T17:51:46.913Z,15.43
2018-02-22T17:54:14.480Z,13.00
2018-02-22T17:56:41.984Z,14.70
2018-02-22T17:59:09.646Z,15.40
2018-02-22T18:01:37.297Z,14.77
2018-02-22T18:04:04.825Z,17.03
2018-02-22T18:06:32.579Z,18.33
2018-02-22T18:09:00.274Z,16.33
2018-02-22T18:11:29.207Z,18.40
2018-02-22T18:13:56.780Z,17.00
2018-02-22T18:16:24.376Z,18.13
2018-02-22T18:18:51.924Z,20.00
2018-02-22T18:21:19.449Z,18.47
2018-02-22T18:23:46.986Z,19.43
2018-02-22T18:26:14.531Z,19.50
2018-02-22T18:28:44.237Z,19.23
2018-02-22T18:31:11.786Z,19.33
2018-02-22T18:33:39.429Z,20.53
2018-02-22T18:36:06.964Z,19.53
2018-02-22T18:38:40.231Z,20.70
2018-02-22T18:41:07.731Z,20.87
2018-02-22T18:43:41.114Z,20.60
2018-02-22T18:46:08.668Z,21.03
2018-02-22T18:48:36.232Z,20.50
2018-02-22T18:51:03.776Z,19.20
2018-02-22T18:53:31.365Z,21.00
2018-02-22T18:55:58.930Z,21.80
2018-02-22T18:58:26.448Z,22.17
2018-02-22T19:00:53.969Z,22.00
2018-02-22T19:03:21.500Z,22.33
2018-02-22T19:05:49.105Z,22.77
2018-02-22T19:08:16.657Z,20.90
2018-02-22T19:10:44.155Z,22.17
2018-02-22T19:13:11.689Z,21.47
2018-02-22T19:15:39.237Z,21.40
2018-02-22T19:18:06.742Z,22.27
2018-02-22T19:20:34.257Z,20.90
2018-02-22T19:23:01.838Z,20.83
2018-02-22T19:25:29.439Z,21.63
2018-02-22T19:27:57.043Z,23.03
2018-02-22T19:30:24.609Z,21.30
2018-02-22T19:32:52.164Z,24.17
2018-02-22T19:35:19.761Z,22.20
2018-02-22T19:37:47.272Z,23.03
2018-02-22T19:40:14.782Z,22.57
2018-02-22T19:42:42.291Z,22.77
2018-02-22T19:45:09.795Z,23.37
2018-02-22T19:47:37.314Z,23.90
2018-02-22T19:50:04.830Z,24.80
2018-02-22T19:52:32.368Z,22.80
2018-02-22T19:54:59.884Z,24.93
2018-02-22T19:57:27.447Z,24.43
2018-02-22T19:59:54.981Z,24.97
2018-02-22T20:02:22.524Z,24.47
2018-02-22T20:04:50.033Z,23.50
2018-02-22T20:07:17.560Z,24.50
2018-02-22T20:09:45.047Z,24.57
2018-02-22T20:12:12.567Z,24.13
2018-02-22T20:14:40.069Z,25.03
2018-02-22T20:17:07.631Z,26.40
2018-02-22T20:19:35.124Z,26.70
2018-02-22T20:22:02.654Z,24.87
2018-02-22T20:24:30.173Z,26.50
2018-02-22T20:26:57.724Z,26.40
2018-02-22T20:29:25.237Z,25.17
2018-02-22T20:31:52.745Z,27.47
2018-02-22T20:34:20.304Z,26.87
2018-02-22T20:36:47.914Z,27.10
2018-02-22T20:39:16.234Z,26.60
2018-02-22T20:41:43.737Z,27.80
2018-02-22T20:44:11.339Z,25.37
2018-02-22T20:46:38.920Z,29.03
2018-02-22T20:49:06.443Z,26.20
2018-02-22T20:51:36.916Z,29.80
2018-02-22T20:54:04.527Z,27.63
2018-02-22T20:56:32.076Z,29.40
2018-02-22T20:58:59.574Z,28.97
2018-02-22T21:01:27.133Z,28.20
2018-02-22T21:03:54.651Z,27.80
2018-02-22T21:06:22.393Z,28.07
2018-02-22T21:08:49.895Z,29.80
2018-02-22T21:11:18.216Z,30.07
2018-02-22T21:13:45.808Z,27.60
2018-02-22T21:16:13.440Z,27.93
2018-02-22T21:18:40.975Z,27.00
2018-02-22T21:21:08.500Z,30.93
2018-02-22T21:23:36.071Z,28.80
2018-02-22T21:26:03.768Z,28.00
2018-02-22T21:28:31.289Z,27.97
2018-02-22T21:30:58.780Z,28.00
2018-02-22T21:33:26.497Z,26.47
2018-02-22T21:35:54.024Z,29.93
2018-02-22T21:38:21.523Z,27.20
2018-02-22T21:40:49.296Z,29.30
2018-02-22T21:43:16.954Z,30.77
2018-02-22T21:45:44.639Z,28.80
2018-02-22T21:48:12.503Z,29.43
2018-02-22T21:50:40.037Z,28.87
2018-02-22T21:53:07.639Z,30.57
2018-02-22T21:55:35.273Z,28.97
2018-02-22T21:58:02.934Z,29.70
2018-02-22T22:00:30.414Z,28.87
2018-02-22T22:02:58.253Z,30.63
2018-02-22T22:05:26.136Z,29.30
2018-02-22T22:07:53.739Z,30.77
2018-02-22T22:10:21.236Z,27.93
2018-02-22T22:12:48.752Z,28.97
2018-02-22T22:15:16.250Z,31.10
2018-02-22T22:17:43.811Z,30.07
2018-02-22T22:20:11.318Z,30.20
2018-02-22T22:22:38.843Z,33.10
2018-02-22T22:25:06.381Z,29.07
2018-02-22T22:27:34.122Z,30.40
2018-02-22T22:30:01.639Z,32.00
2018-02-22T22:32:29.166Z,32.20
2018-02-22T22:34:56.675Z,31.70
2018-02-22T22:37:24.396Z,31.37
2018-02-22T22:39:51.943Z,30.30
2018-02-22T22:42:19.486Z,31.67
2018-02-22T22:44:46.993Z,29.77
2018-02-22T22:47:14.550Z,32.47
2018-02-22T22:49:43.606Z,31.07
2018-02-22T22:52:11.176Z,32.60
2018-02-22T22:54:39.456Z,32.43
2018-02-22T22:57:06.983Z,31.27
2018-02-22T22:59:34.482Z,29.97
2018-02-22T23:02:02.036Z,31.33
2018-02-22T23:04:29.659Z,30.30
2018-02-22T23:06:57.158Z,29.10
2018-02-22T23:09:24.893Z,31.83
2018-02-22T23:11:52.584Z,33.47
2018-02-22T23:14:20.168Z,33.07
2018-02-22T23:16:48.148Z,31.87
2018-02-22T23:19:15.837Z,31.73
2018-02-22T23:21:43.366Z,29.43
2018-02-22T23:24:10.909Z,31.63
2018-02-22T23:26:38.482Z,30.87
2018-02-22T23:29:06.016Z,30.80
2018-02-22T23:31:33.567Z,29.10
2018-02-22T23:34:01.136Z,28.97
2018-02-22T23:36:28.666Z,29.70
2018-02-22T23:38:57.088Z,31.37
2018-02-22T23:41:30.261Z,29.40
2018-02-22T23:43:57.785Z,29.40
2018-02-22T23:46:25.299Z,29.83
2018-02-22T23:48:52.818Z,24.47
2018-02-22T23:51:20.327Z,28.27
2018-02-22T23:53:47.854Z,28.53
2018-02-22T23:56:15.377Z,29.23
2018-02-22T23:58:42.976Z,29.57
